Time;durP1;ratioP1;P1;durP2;ratioP2;P2;SDS_P1;SDS_P2;PMS_P1;PMS_P2;Temp;Humidity;BMP_temperature;BMP_pressure;BME280_temperature;BME280_humidity;BME280_pressure;Samples;Min_cycle;Max_cycle;Signal;HPM_P1;HPM_P2
2022/07/30 00:00:26;;;;;;;3.28;3.03;;;;;;;22.98;51.05;64379.06;5044922;28;20224;-77
2022/07/30 00:02:53;;;;;;;3.17;2.85;;;;;;;22.90;51.72;64370.69;5044845;28;20221;-76
2022/07/30 00:05:20;;;;;;;2.90;2.80;;;;;;;22.77;51.86;64357.63;5044841;28;20217;-77
2022/07/30 00:07:47;;;;;;;5.05;3.30;;;;;;;22.85;52.09;64368.56;5044648;28;20233;-77
2022/07/30 00:10:15;;;;;;;3.05;2.95;;;;;;;22.87;51.91;64370.13;5044358;28;20204;-76
2022/07/30 00:12:43;;;;;;;3.20;3.03;;;;;;;22.80;52.93;64363.34;5044772;28;20217;-77
2022/07/30 00:15:10;;;;;;;3.58;3.28;;;;;;;22.81;52.46;64361.78;5044120;28;20194;-77
2022/07/30 00:17:37;;;;;;;3.40;3.20;;;;;;;22.70;52.19;64352.91;5044635;28;20225;-77
2022/07/30 00:20:05;;;;;;;3.78;2.75;;;;;;;22.76;52.22;64356.56;5044565;28;20198;-75
2022/07/30 00:22:32;;;;;;;3.25;3.05;;;;;;;22.72;52.48;64357.06;5043928;28;20292;-77
2022/07/30 00:24:59;;;;;;;3.15;2.95;;;;;;;22.69;52.92;64351.84;5044244;28;20232;-76
2022/07/30 00:27:26;;;;;;;3.38;3.17;;;;;;;22.78;52.91;64360.72;5044035;28;20209;-77
2022/07/30 00:29:54;;;;;;;3.30;3.00;;;;;;;22.77;53.19;64357.63;5044164;28;20193;-76
2022/07/30 00:32:21;;;;;;;2.95;2.72;;;;;;;22.68;53.40;64353.41;5044889;28;20217;-77
2022/07/30 00:34:48;;;;;;;4.45;3.08;;;;;;;22.71;53.59;64350.81;5045166;28;20202;-77
2022/07/30 00:37:15;;;;;;;3.78;3.58;;;;;;;22.68;53.29;64350.28;5044105;28;20534;-78
2022/07/30 00:39:42;;;;;;;3.58;3.28;;;;;;;22.69;53.39;64351.34;5044456;28;20194;-77
2022/07/30 00:42:09;;;;;;;3.30;3.10;;;;;;;22.68;53.55;64353.41;5044299;28;20236;-77
2022/07/30 00:44:36;;;;;;;4.40;3.97;;;;;;;22.63;53.92;64342.44;5043976;28;20220;-76
2022/07/30 00:47:04;;;;;;;3.90;3.25;;;;;;;22.69;53.61;64349.25;5044516;28;20217;-77
2022/07/30 00:49:31;;;;;;;3.47;3.13;;;;;;;22.66;53.76;64346.09;5044418;28;20200;-77
2022/07/30 00:51:58;;;;;;;3.72;3.42;;;;;;;22.64;53.95;64346.63;5043400;28;20224;-77
2022/07/30 00:54:25;;;;;;;3.95;3.70;;;;;;;22.61;53.93;64342.94;5042991;28;20393;-77
2022/07/30 00:56:52;;;;;;;3.30;3.10;;;;;;;22.55;54.46;64339.81;5043204;28;20288;-77
2022/07/30 00:59:19;;;;;;;3.72;3.53;;;;;;;22.58;54.11;64340.34;5044142;28;20216;-77
2022/07/30 01:01:46;;;;;;;4.00;3.80;;;;;;;22.63;54.57;64339.84;5043476;28;20193;-76
2022/07/30 01:04:14;;;;;;;3.33;3.13;;;;;;;22.59;54.14;64341.38;5043544;28;20269;-78
2022/07/30 01:06:41;;;;;;;3.65;3.45;;;;;;;22.57;54.78;64339.28;5043402;28;20224;-77
2022/07/30 01:09:08;;;;;;;4.60;3.50;;;;;;;22.53;54.61;64335.09;5043730;28;20432;-77
2022/07/30 01:11:38;;;;;;;3.30;3.10;;;;;;;22.57;54.45;64338.78;5043401;28;20220;-76
2022/07/30 01:14:07;;;;;;;4.75;3.15;;;;;;;22.42;55.37;64325.66;5043525;28;20443;-77
2022/07/30 01:16:34;;;;;;;4.47;3.17;;;;;;;22.36;55.10;64316.81;5042987;28;20427;-76
2022/07/30 01:22:06;;;;;;;3.30;3.10;;;;;;;22.33;55.65;64311.06;5043725;28;20343;-76
2022/07/30 01:24:36;;;;;;;3.72;3.42;;;;;;;22.21;56.25;64298.53;5043332;28;20493;-77
2022/07/30 01:27:08;;;;;;;3.70;3.42;;;;;;;22.22;56.23;64302.16;5043073;28;20220;-77
2022/07/30 01:29:38;;;;;;;3.45;2.90;;;;;;;22.21;56.49;64301.63;5043659;28;20356;-76
2022/07/30 01:32:07;;;;;;;3.30;3.10;;;;;;;22.25;56.93;64303.22;5043911;28;20224;-76
2022/07/30 01:34:36;;;;;;;3.33;3.22;;;;;;;22.21;57.38;64301.13;5043552;28;20197;-77
2022/07/30 01:37:07;;;;;;;3.65;3.45;;;;;;;22.11;57.89;64290.66;5043441;28;20221;-77
2022/07/30 01:39:36;;;;;;;3.42;3.22;;;;;;;22.11;57.98;64291.19;5043756;28;20518;-77
2022/07/30 01:42:07;;;;;;;4.00;3.70;;;;;;;22.07;57.81;64287.00;5043511;28;20228;-77
2022/07/30 01:44:34;;;;;;;4.60;3.47;;;;;;;22.00;58.52;64279.19;5043681;28;20192;-76
2022/07/30 01:47:02;;;;;;;3.58;3.38;;;;;;;21.90;59.26;64268.72;5043698;28;20216;-76
2022/07/30 01:49:30;;;;;;;2.90;2.80;;;;;;;21.86;59.89;64267.13;5043798;28;20206;-77
2022/07/30 01:51:58;;;;;;;7.40;3.58;;;;;;;21.55;60.91;64230.56;5043696;28;20268;-78
2022/07/30 01:54:27;;;;;;;6.25;3.72;;;;;;;21.61;61.91;64236.84;5043197;28;20200;-76
2022/07/30 01:56:56;;;;;;;3.45;3.35;;;;;;;21.54;62.64;64232.13;5042928;28;20225;-77
2022/07/30 01:59:26;;;;;;;3.55;3.25;;;;;;;21.32;62.73;64206.03;5043022;28;20197;-76
2022/07/30 02:01:53;;;;;;;4.00;3.80;;;;;;;21.30;63.53;64204.47;5042891;28;20218;-77
2022/07/30 02:04:19;;;;;;;3.58;3.20;;;;;;;21.22;63.75;64200.78;5043482;28;20240;-76
2022/07/30 02:06:52;;;;;;;11.85;4.28;;;;;;;21.15;64.26;64191.41;5045942;28;20388;-77
2022/07/30 02:09:23;;;;;;;3.83;2.95;;;;;;;21.02;65.63;64180.41;5046739;28;20208;-78
2022/07/30 02:14:45;;;;;;;4.07;3.67;;;;;;;20.98;66.97;64178.84;5046527;28;20184;-77
2022/07/30 02:17:19;;;;;;;3.83;3.60;;;;;;;20.95;67.02;64173.06;5047478;28;20221;-77
2022/07/30 02:19:51;;;;;;;6.05;3.33;;;;;;;20.90;67.12;64164.75;5047037;28;20185;-76
2022/07/30 02:22:20;;;;;;;4.10;3.80;;;;;;;20.81;67.86;64155.34;5046708;28;20233;-77
2022/07/30 02:24:49;;;;;;;4.03;3.75;;;;;;;20.77;69.01;64151.19;5046891;28;20201;-76
2022/07/30 02:27:22;;;;;;;4.15;3.95;;;;;;;20.61;69.60;64132.41;5046567;28;20422;-77
2022/07/30 02:29:52;;;;;;;4.57;4.22;;;;;;;20.69;69.64;64145.94;5046408;28;20216;-77
2022/07/30 02:32:21;;;;;;;4.32;4.13;;;;;;;20.70;69.16;64146.97;5046443;28;20224;-77
2022/07/30 02:34:53;;;;;;;4.43;4.18;;;;;;;20.61;69.99;64140.16;5046390;28;20502;-77
2022/07/30 02:37:23;;;;;;;5.18;4.78;;;;;;;20.58;70.30;64131.88;5046244;28;20213;-76
2022/07/30 02:39:51;;;;;;;4.65;4.25;;;;;;;20.50;70.84;64124.03;5046235;28;20526;-75
2022/07/30 02:42:19;;;;;;;4.32;4.05;;;;;;;20.57;71.05;64125.66;5046345;28;20283;-77
2022/07/30 02:44:48;;;;;;;4.85;4.53;;;;;;;20.52;72.04;64125.59;5046425;28;20213;-77
2022/07/30 02:47:19;;;;;;;4.47;4.18;;;;;;;20.41;73.12;64112.06;5046356;28;20241;-77
2022/07/30 02:49:48;;;;;;;6.28;5.70;;;;;;;20.43;73.13;64114.13;5046532;28;20185;-77
2022/07/30 02:52:16;;;;;;;6.85;5.30;;;;;;;20.46;75.46;64119.34;5046503;28;20228;-77
2022/07/30 02:54:46;;;;;;;5.03;4.63;;;;;;;20.40;75.21;64110.47;5045887;28;20531;-76
2022/07/30 02:57:14;;;;;;;5.85;5.25;;;;;;;20.47;74.92;64126.06;5046207;28;20221;-77
2022/07/30 02:59:43;;;;;;;5.68;5.28;;;;;;;20.46;75.67;64116.75;5046227;28;20221;-76
2022/07/30 03:02:12;;;;;;;5.85;5.30;;;;;;;20.43;76.27;64118.81;5045946;28;20218;-77
2022/07/30 03:04:41;;;;;;;4.95;4.47;;;;;;;20.48;77.55;64114.19;5045909;28;20244;-76
2022/07/30 03:07:09;;;;;;;7.30;5.63;;;;;;;20.41;77.87;64108.94;5045227;28;20237;-77
2022/07/30 03:09:38;;;;;;;5.75;5.35;;;;;;;20.33;78.46;64103.69;5045902;28;20281;-77
2022/07/30 03:12:07;;;;;;;5.68;5.18;;;;;;;20.26;80.70;64096.41;5045590;28;20217;-78
2022/07/30 03:14:34;;;;;;;5.10;4.80;;;;;;;20.25;80.77;64095.34;5046167;28;20220;-77
2022/07/30 03:17:03;;;;;;;6.15;5.28;;;;;;;20.23;79.84;64093.28;5045669;28;20218;-77
2022/07/30 03:19:37;;;;;;;6.18;5.55;;;;;;;20.17;80.44;64087.00;5044939;28;20248;-77
2022/07/30 03:22:07;;;;;;;6.30;5.78;;;;;;;20.16;81.50;64088.03;5046105;28;20217;-77
2022/07/30 03:24:35;;;;;;;5.28;4.93;;;;;;;20.10;81.65;64079.69;5046336;28;20185;-77
2022/07/30 03:27:03;;;;;;;6.28;5.68;;;;;;;20.14;82.38;64085.94;5045192;28;20251;-77
2022/07/30 03:29:32;;;;;;;6.22;5.60;;;;;;;20.18;82.50;64088.06;5045528;28;20265;-77
2022/07/30 03:32:00;;;;;;;5.65;5.25;;;;;;;20.14;83.23;64089.03;5045517;28;20221;-77
2022/07/30 03:34:27;;;;;;;5.93;5.43;;;;;;;20.04;83.93;64072.91;5045389;28;20197;-76
2022/07/30 03:36:55;;;;;;;8.23;5.68;;;;;;;20.11;84.63;64080.19;5044935;28;20232;-76
2022/07/30 03:39:24;;;;;;;5.90;5.43;;;;;;;20.06;85.68;64075.50;5044918;28;20368;-77
2022/07/30 03:41:52;;;;;;;6.07;5.65;;;;;;;20.06;85.09;64075.50;5044437;28;20267;-77
2022/07/30 03:44:19;;;;;;;6.00;5.60;;;;;;;20.14;84.74;64081.25;5044674;28;20182;-76
2022/07/30 03:46:49;;;;;;;8.00;5.68;;;;;;;20.15;83.99;64079.22;5044681;28;20233;-77
2022/07/30 03:49:17;;;;;;;6.13;5.63;;;;;;;20.09;85.54;64078.09;5045312;28;20212;-77
2022/07/30 03:51:45;;;;;;;6.30;5.70;;;;;;;20.08;87.36;64077.59;5044518;28;20394;-77
2022/07/30 03:54:13;;;;;;;11.88;5.38;;;;;;;20.14;87.52;64083.34;5044514;28;20209;-77
2022/07/30 03:56:41;;;;;;;5.78;5.28;;;;;;;20.13;86.69;64082.81;5044601;28;20193;-76
2022/07/30 03:59:09;;;;;;;7.32;5.35;;;;;;;20.24;86.43;64099.47;5045099;28;20525;-77
2022/07/30 04:01:36;;;;;;;6.30;5.70;;;;;;;20.32;85.16;64102.13;5045129;28;20197;-77
2022/07/30 04:04:07;;;;;;;6.30;5.70;;;;;;;20.33;86.48;64103.69;5044597;28;20197;-76
2022/07/30 04:06:38;;;;;;;8.60;5.63;;;;;;;20.42;85.19;64118.28;5044829;28;20249;-77
2022/07/30 04:09:06;;;;;;;5.55;5.15;;;;;;;20.55;84.49;64126.66;5045450;28;20380;-77
2022/07/30 04:11:33;;;;;;;6.25;5.68;;;;;;;20.59;83.63;64130.84;5044515;28;20296;-76
2022/07/30 04:14:02;;;;;;;5.40;4.90;;;;;;;20.64;83.30;64135.53;5044576;28;20204;-77
2022/07/30 04:16:36;;;;;;;5.75;5.25;;;;;;;20.81;82.69;64155.88;5044215;28;20554;-76
2022/07/30 04:19:07;;;;;;;5.97;4.60;;;;;;;20.87;82.58;64159.56;5044632;28;20189;-77
2022/07/30 04:21:36;;;;;;;4.95;4.55;;;;;;;20.93;81.51;64165.81;5044550;28;20223;-77
2022/07/30 04:24:04;;;;;;;5.50;5.00;;;;;;;21.05;80.29;64180.97;5044320;28;20251;-76
2022/07/30 04:26:32;;;;;;;4.70;4.40;;;;;;;21.19;80.50;64189.88;5043833;28;20233;-77
2022/07/30 04:29:02;;;;;;;5.57;4.35;;;;;;;21.33;82.02;64207.59;5044351;28;20251;-77
2022/07/30 04:31:34;;;;;;;4.88;4.45;;;;;;;21.47;79.80;64219.09;5043803;28;20211;-77
2022/07/30 04:34:01;;;;;;;4.70;4.40;;;;;;;21.57;78.78;64232.66;5044062;28;20220;-77
2022/07/30 04:36:28;;;;;;;5.20;4.72;;;;;;;21.69;77.82;64244.69;5044008;28;20204;-76
2022/07/30 04:38:55;;;;;;;4.20;3.90;;;;;;;21.76;75.94;64249.41;5044151;28;20197;-77
2022/07/30 04:41:22;;;;;;;4.38;3.97;;;;;;;21.95;75.32;64271.88;5043721;28;20228;-77
2022/07/30 04:43:49;;;;;;;4.72;4.32;;;;;;;22.07;76.17;64283.91;5043789;28;20296;-77
2022/07/30 04:46:18;;;;;;;6.30;4.68;;;;;;;22.12;75.49;64289.66;5043727;28;20228;-76
2022/07/30 04:48:45;;;;;;;4.40;3.65;;;;;;;22.29;74.46;64310.00;5043641;28;20240;-77
2022/07/30 04:51:16;;;;;;;5.13;4.72;;;;;;;22.41;74.96;64319.97;5044475;28;20247;-77
2022/07/30 04:53:45;;;;;;;8.50;4.65;;;;;;;22.48;74.25;64329.34;5043872;28;20455;-76
2022/07/30 04:56:15;;;;;;;6.80;3.85;;;;;;;22.57;74.12;64336.69;5044657;28;20212;-77
2022/07/30 04:58:43;;;;;;;4.15;3.85;;;;;;;22.59;72.30;64338.78;5043873;28;20224;-76
2022/07/30 05:01:12;;;;;;;4.43;4.13;;;;;;;22.73;72.19;64350.31;5043338;28;20201;-77
2022/07/30 05:03:40;;;;;;;4.57;4.28;;;;;;;22.89;73.29;64372.75;5043990;28;20220;-77
2022/07/30 05:06:09;;;;;;;4.15;3.85;;;;;;;23.04;71.80;64387.41;5043315;28;20225;-77
2022/07/30 05:08:36;;;;;;;4.70;4.32;;;;;;;23.18;71.11;64402.56;5044769;28;20221;-78
2022/07/30 05:11:03;;;;;;;5.03;4.43;;;;;;;23.40;70.17;64423.00;5043950;28;20197;-77
2022/07/30 05:13:30;;;;;;;4.32;3.88;;;;;;;23.55;70.18;64446.50;5044101;28;20248;-76
2022/07/30 05:15:57;;;;;;;4.97;4.15;;;;;;;23.70;68.96;64459.59;5043470;28;20198;-76
2022/07/30 05:18:24;;;;;;;4.68;4.28;;;;;;;23.89;68.65;64476.34;5042688;28;20221;-76
2022/07/30 05:20:52;;;;;;;4.35;3.83;;;;;;;23.96;68.37;64483.69;5043070;28;20208;-77
2022/07/30 05:23:20;;;;;;;4.70;4.30;;;;;;;23.91;67.98;64478.97;5043523;28;20395;-76
2022/07/30 05:25:47;;;;;;;6.45;4.40;;;;;;;23.95;67.91;64480.53;5042722;28;20391;-77
2022/07/30 05:28:13;;;;;;;6.05;4.18;;;;;;;24.09;66.73;64496.78;5043050;28;20243;-76
2022/07/30 05:30:40;;;;;;;4.45;4.10;;;;;;;24.07;66.01;64495.22;5043621;28;20356;-76
2022/07/30 05:33:07;;;;;;;3.85;3.65;;;;;;;24.18;66.65;64503.59;5043772;28;20281;-77
2022/07/30 05:35:35;;;;;;;3.97;3.70;;;;;;;24.41;65.43;64532.88;5043179;28;20243;-79
2022/07/30 05:38:03;;;;;;;3.83;3.63;;;;;;;24.52;64.26;64544.91;5044247;28;20221;-77
2022/07/30 05:40:30;;;;;;;4.35;4.00;;;;;;;24.48;64.03;64535.53;5043943;28;20251;-76
2022/07/30 05:42:57;;;;;;;4.35;4.05;;;;;;;24.37;63.36;64526.09;5048136;28;20229;-78
2022/07/30 05:45:24;;;;;;;8.55;4.53;;;;;;;24.64;64.19;64546.56;5047688;28;20201;-77
2022/07/30 05:47:51;;;;;;;5.07;4.20;;;;;;;24.63;63.64;64546.03;5046670;28;20370;-77
2022/07/30 05:50:18;;;;;;;4.13;3.88;;;;;;;24.69;62.95;64557.53;5047694;28;20232;-77
2022/07/30 05:52:44;;;;;;;5.38;4.57;;;;;;;24.65;61.82;64555.94;5047141;28;20339;-77
2022/07/30 05:55:13;;;;;;;4.20;3.90;;;;;;;24.87;61.82;64581.06;5046966;28;20201;-77
2022/07/30 05:57:41;;;;;;;4.30;3.50;;;;;;;25.06;61.46;64598.38;5047161;28;20225;-76
2022/07/30 06:00:10;;;;;;;4.13;3.83;;;;;;;25.21;60.81;64614.09;5047886;28;20225;-77
2022/07/30 06:02:38;;;;;;;5.80;5.10;;;;;;;25.35;59.99;64625.63;5046781;28;20264;-78
2022/07/30 06:05:05;;;;;;;4.78;4.35;;;;;;;25.49;57.70;64640.31;5047163;28;20265;-77
2022/07/30 06:07:32;;;;;;;4.20;3.97;;;;;;;25.57;58.80;64646.63;5046916;28;20233;-77
2022/07/30 06:10:00;;;;;;;4.53;4.18;;;;;;;25.74;57.39;64669.66;5046964;28;20374;-77
2022/07/30 06:12:29;;;;;;;4.38;4.00;;;;;;;25.91;57.24;64684.84;5047037;28;20220;-78
2022/07/30 06:14:56;;;;;;;4.95;4.57;;;;;;;26.01;56.34;64702.63;5047205;28;20224;-78
2022/07/30 06:17:23;;;;;;;4.88;4.28;;;;;;;26.02;55.74;64696.38;5046561;28;20224;-76
2022/07/30 06:19:52;;;;;;;3.90;3.70;;;;;;;25.77;55.82;64669.66;5046645;28;20197;-77
2022/07/30 06:22:19;;;;;;;4.65;4.10;;;;;;;25.87;56.31;64682.72;5046323;28;20239;-77
2022/07/30 06:24:46;;;;;;;4.25;3.92;;;;;;;26.06;55.34;64700.59;5046182;28;20261;-76
2022/07/30 06:27:13;;;;;;;4.60;4.30;;;;;;;26.09;54.96;64706.34;5046454;28;20287;-76
2022/07/30 06:29:41;;;;;;;4.22;3.80;;;;;;;26.21;54.40;64721.53;5046716;28;20193;-78
2022/07/30 06:32:08;;;;;;;3.90;3.60;;;;;;;26.32;55.10;64727.31;5046037;28;20292;-78
2022/07/30 06:34:35;;;;;;;4.93;4.50;;;;;;;26.30;55.90;64727.31;5046592;28;20267;-76
2022/07/30 06:37:02;;;;;;;4.63;4.40;;;;;;;26.18;54.14;64713.16;5046286;28;20255;-77
2022/07/30 06:39:29;;;;;;;4.03;3.83;;;;;;;26.14;55.49;64708.97;5046012;28;20197;-78
2022/07/30 06:41:55;;;;;;;5.22;4.72;;;;;;;26.05;56.37;64702.16;5046608;28;20217;-76
2022/07/30 06:44:22;;;;;;;4.45;4.10;;;;;;;25.86;56.14;64684.31;5046423;28;20399;-78
2022/07/30 06:46:50;;;;;;;5.70;4.32;;;;;;;25.97;55.38;64695.84;5046202;28;20237;-76
2022/07/30 06:49:17;;;;;;;4.65;4.35;;;;;;;26.08;55.82;64707.38;5046089;28;20189;-77
2022/07/30 06:51:45;;;;;;;4.50;4.20;;;;;;;26.23;55.67;64717.38;5046255;28;20268;-77
2022/07/30 06:54:11;;;;;;;5.15;4.68;;;;;;;26.15;55.24;64710.03;5044781;28;20402;-77
2022/07/30 06:56:38;;;;;;;5.03;4.53;;;;;;;26.34;55.72;64731.50;5045913;28;20193;-76
2022/07/30 06:59:05;;;;;;;5.20;4.72;;;;;;;26.43;54.92;64736.25;5046115;28;20201;-76
2022/07/30 07:01:32;;;;;;;4.45;4.10;;;;;;;26.46;55.26;64744.59;5046097;28;20232;-77
2022/07/30 07:04:02;;;;;;;7.50;4.78;;;;;;;26.62;53.87;64760.88;5046287;28;20232;-78
2022/07/30 07:06:29;;;;;;;4.90;4.00;;;;;;;26.67;54.08;64766.13;5046632;28;20265;-76
2022/07/30 07:08:56;;;;;;;4.47;4.20;;;;;;;26.72;54.41;64774.50;5046583;28;20437;-76
2022/07/30 07:11:23;;;;;;;4.43;4.07;;;;;;;26.61;54.38;64762.44;5046023;28;20229;-77
2022/07/30 07:13:50;;;;;;;4.57;4.32;;;;;;;26.65;54.12;64756.69;5045774;28;20221;-77
2022/07/30 07:16:20;;;;;;;4.82;4.43;;;;;;;26.83;54.34;64780.31;5046173;28;20435;-76
2022/07/30 07:18:47;;;;;;;4.45;4.18;;;;;;;27.01;54.45;64804.41;5045463;28;20221;-77
2022/07/30 07:21:15;;;;;;;5.53;4.93;;;;;;;27.19;53.52;64820.69;5045519;28;20520;-78
2022/07/30 07:23:42;;;;;;;4.60;4.30;;;;;;;27.39;53.50;64841.69;5045650;28;20449;-77
2022/07/30 07:26:11;;;;;;;5.20;4.80;;;;;;;27.39;52.97;64843.78;5045735;28;20201;-77
2022/07/30 07:28:38;;;;;;;5.03;4.65;;;;;;;27.57;51.53;64857.94;5045822;28;20294;-77
2022/07/30 07:31:06;;;;;;;9.00;4.50;;;;;;;27.69;50.43;64875.25;5045643;28;20198;-77
2022/07/30 07:33:32;;;;;;;4.53;4.32;;;;;;;27.85;51.14;64892.06;5045934;28;20269;-77
2022/07/30 07:36:00;;;;;;;5.47;4.78;;;;;;;27.89;50.27;64894.16;5045562;28;20375;-77
2022/07/30 07:38:28;;;;;;;4.75;4.30;;;;;;;28.05;50.04;64913.06;5045839;28;20252;-76
2022/07/30 07:40:55;;;;;;;4.32;4.03;;;;;;;27.87;49.55;64891.53;5046027;28;20240;-77
2022/07/30 07:43:24;;;;;;;4.47;4.18;;;;;;;28.06;50.13;64908.88;5044882;28;20221;-77
2022/07/30 07:45:51;;;;;;;4.47;4.03;;;;;;;28.06;49.72;64909.41;5045082;28;20198;-77
2022/07/30 07:48:18;;;;;;;4.63;4.32;;;;;;;28.06;49.20;64914.13;5045878;28;20434;-76
2022/07/30 07:50:45;;;;;;;4.43;4.22;;;;;;;28.07;48.76;64913.06;5045599;28;20204;-77
2022/07/30 07:53:12;;;;;;;4.63;4.32;;;;;;;28.00;49.25;64899.97;5045326;28;20217;-77
2022/07/30 07:55:41;;;;;;;5.20;4.78;;;;;;;28.20;49.60;64931.97;5046349;28;20193;-76
2022/07/30 07:58:10;;;;;;;5.65;5.22;;;;;;;28.42;48.63;64949.81;5045937;28;20273;-77
2022/07/30 08:00:37;;;;;;;4.82;4.53;;;;;;;28.48;47.76;64955.06;5045114;28;20591;-76
2022/07/30 08:03:04;;;;;;;4.57;4.18;;;;;;;28.63;48.45;64971.34;5045004;28;20248;-77
2022/07/30 08:05:31;;;;;;;5.50;4.75;;;;;;;28.71;47.39;64976.63;5044127;28;20251;-76
2022/07/30 08:07:59;;;;;;;5.97;4.15;;;;;;;28.65;47.58;64972.94;5045359;28;20256;-77
2022/07/30 08:10:26;;;;;;;4.97;4.57;;;;;;;28.75;47.16;64978.72;5044531;28;20193;-78
2022/07/30 08:12:54;;;;;;;4.35;3.97;;;;;;;28.77;47.21;64980.31;5044718;28;20221;-77
2022/07/30 08:15:23;;;;;;;4.93;4.53;;;;;;;28.89;46.36;65000.78;5045019;28;20269;-77
2022/07/30 08:17:49;;;;;;;4.60;4.30;;;;;;;28.89;45.23;65001.28;5044730;28;20277;-77
2022/07/30 08:20:16;;;;;;;4.85;4.57;;;;;;;28.84;45.97;64990.25;5044773;28;20197;-78
2022/07/30 08:22:43;;;;;;;4.93;4.65;;;;;;;28.39;44.99;64951.91;5044273;28;20225;-76
2022/07/30 08:25:10;;;;;;;4.70;4.22;;;;;;;28.54;45.95;64961.91;5044407;28;20216;-78
2022/07/30 08:27:38;;;;;;;4.63;4.35;;;;;;;28.70;46.07;64976.09;5025056;28;20233;-78
2022/07/30 08:30:08;;;;;;;5.45;5.03;;;;;;;28.78;45.30;64986.59;5025893;28;20506;-77
2022/07/30 08:32:36;;;;;;;4.80;4.40;;;;;;;28.84;44.37;64992.88;5024938;28;20549;-77
2022/07/30 08:35:04;;;;;;;5.35;4.60;;;;;;;28.53;44.70;64957.72;5024702;28;20198;-78
2022/07/30 08:37:30;;;;;;;4.53;4.13;;;;;;;28.64;43.74;64972.41;5025478;28;20408;-77
2022/07/30 08:39:57;;;;;;;5.53;5.07;;;;;;;28.65;44.13;64973.47;5024632;28;20435;-78
2022/07/30 08:42:26;;;;;;;5.25;4.65;;;;;;;28.64;43.98;64971.88;5024882;28;20229;-78
2022/07/30 08:44:54;;;;;;;5.40;4.60;;;;;;;28.90;43.63;64997.09;5025541;28;20210;-79
2022/07/30 08:47:27;;;;;;;4.63;4.43;;;;;;;29.00;43.83;65012.84;5024693;28;20240;-77
2022/07/30 08:50:00;;;;;;;4.68;4.47;;;;;;;29.18;42.92;65026.53;5024343;28;20205;-77
2022/07/30 08:52:27;;;;;;;5.00;4.65;;;;;;;29.16;43.40;65024.44;5024863;28;20218;-77
2022/07/30 08:54:54;;;;;;;5.43;5.05;;;;;;;29.35;43.38;65044.41;5024746;28;20433;-78
2022/07/30 08:57:21;;;;;;;4.88;4.47;;;;;;;29.43;41.15;65055.44;5024535;28;20530;-77
2022/07/30 08:59:50;;;;;;;4.47;4.20;;;;;;;29.60;41.15;65072.25;5025078;28;20228;-78
2022/07/30 09:02:17;;;;;;;4.88;4.57;;;;;;;29.64;41.88;65079.06;5024828;28;20256;-78
2022/07/30 09:04:45;;;;;;;5.50;5.10;;;;;;;29.62;41.38;65076.97;5024230;28;20221;-77
2022/07/30 09:07:12;;;;;;;4.93;4.50;;;;;;;29.57;42.75;65069.09;5024475;28;20234;-77
2022/07/30 09:09:39;;;;;;;9.43;4.88;;;;;;;29.76;41.22;65092.22;5024419;28;20278;-76
2022/07/30 09:12:34;;;;;;;4.90;4.60;;;;;;;29.71;40.99;65089.06;5024365;28;20226;-75
2022/07/30 09:15:03;;;;;;;5.03;4.72;;;;;;;29.53;39.88;65065.94;5024392;28;20205;-77
2022/07/30 09:17:56;;;;;;;4.57;4.22;;;;;;;29.50;40.89;65062.25;5023811;28;20277;-78
2022/07/30 09:20:27;;;;;;;4.65;4.35;;;;;;;29.82;39.86;65095.91;5025097;28;20406;-77
2022/07/30 09:22:55;;;;;;;6.32;4.63;;;;;;;29.73;40.07;65086.47;5024674;28;20249;-77
2022/07/30 09:25:41;;;;;;;5.40;4.90;;;;;;;29.93;40.78;65104.31;5026624;28;20204;-76
2022/07/30 09:28:10;;;;;;;6.32;4.15;;;;;;;30.23;38.59;65139.03;5044135;28;20331;-76
2022/07/30 09:30:45;;;;;;;4.38;4.15;;;;;;;30.16;38.20;65131.66;5043916;28;20197;-77
2022/07/30 09:33:12;;;;;;;3.97;3.78;;;;;;;30.18;38.77;65133.22;5043916;28;20255;-76
2022/07/30 09:35:42;;;;;;;4.22;3.92;;;;;;;30.09;38.31;65123.75;5043652;28;20261;-78
2022/07/30 09:38:10;;;;;;;4.82;4.53;;;;;;;30.25;40.18;65143.25;5043501;28;20225;-76
2022/07/30 09:40:37;;;;;;;4.53;4.32;;;;;;;30.44;38.21;65165.84;5043517;28;20201;-78
2022/07/30 09:43:06;;;;;;;5.05;4.78;;;;;;;30.25;38.30;65141.13;5043702;28;20599;-77
2022/07/30 09:45:33;;;;;;;5.15;4.57;;;;;;;30.27;38.22;65143.22;5044435;28;20205;-77
2022/07/30 09:48:00;;;;;;;4.60;4.30;;;;;;;30.38;38.16;65154.28;5043872;28;20382;-77
2022/07/30 09:50:28;;;;;;;4.85;4.45;;;;;;;30.66;38.43;65180.56;5043343;28;20253;-77
2022/07/30 09:53:06;;;;;;;4.78;4.47;;;;;;;30.68;39.22;65183.19;5044818;28;20218;-77
2022/07/30 09:55:35;;;;;;;4.97;4.72;;;;;;;30.59;37.87;65176.91;5043776;28;20249;-77
2022/07/30 09:58:04;;;;;;;6.40;4.65;;;;;;;30.56;38.88;65181.63;5043934;28;20221;-78
2022/07/30 10:00:33;;;;;;;5.10;4.80;;;;;;;30.92;39.85;65210.56;5044036;28;20198;-77
2022/07/30 10:03:02;;;;;;;5.55;5.15;;;;;;;31.18;37.64;65240.56;5044056;28;20237;-78
2022/07/30 10:05:29;;;;;;;4.95;4.65;;;;;;;31.21;37.45;65238.44;5043959;28;20197;-77
2022/07/30 10:07:59;;;;;;;5.78;5.38;;;;;;;31.34;38.58;65252.66;5043687;28;20241;-76
2022/07/30 10:10:29;;;;;;;5.15;4.72;;;;;;;31.16;39.16;65235.81;5043754;28;20201;-77
2022/07/30 10:12:59;;;;;;;6.47;5.93;;;;;;;31.32;38.29;65250.03;5043467;28;20225;-79
2022/07/30 10:15:30;;;;;;;6.10;5.60;;;;;;;31.24;37.17;65242.13;5043845;28;20186;-77
2022/07/30 10:17:58;;;;;;;6.82;6.10;;;;;;;31.12;35.60;65232.13;5043544;28;20220;-76
2022/07/30 10:20:26;;;;;;;5.80;5.38;;;;;;;31.13;37.28;65232.66;5043641;28;20197;-77
2022/07/30 10:22:53;;;;;;;5.88;5.47;;;;;;;31.23;37.59;65246.34;5043555;28;20281;-77
2022/07/30 10:25:23;;;;;;;5.35;5.05;;;;;;;30.79;37.56;65202.66;5042924;28;20197;-76
2022/07/30 10:27:51;;;;;;;6.70;6.20;;;;;;;30.82;37.74;65205.84;5044893;28;20400;-77
2022/07/30 10:30:19;;;;;;;5.65;5.30;;;;;;;30.96;38.03;65217.41;5046215;28;20243;-77
2022/07/30 10:32:46;;;;;;;7.20;6.40;;;;;;;31.22;37.54;65242.66;5046784;28;20221;-76
2022/07/30 10:35:14;;;;;;;6.63;6.13;;;;;;;30.99;36.65;65218.47;5046055;28;20221;-78
2022/07/30 10:37:45;;;;;;;7.13;6.28;;;;;;;31.04;36.46;65223.72;5046366;28;20351;-78
2022/07/30 10:40:19;;;;;;;6.47;6.07;;;;;;;30.93;36.89;65214.78;5046374;28;20269;-77
2022/07/30 10:43:09;;;;;;;6.35;5.97;;;;;;;30.99;37.25;65217.94;5046030;28;20228;-78
2022/07/30 10:45:48;;;;;;;5.97;5.43;;;;;;;31.18;36.69;65235.28;5045661;28;20197;-77
2022/07/30 10:48:16;;;;;;;7.55;6.90;;;;;;;31.07;37.11;65223.72;5045697;28;20240;-77
2022/07/30 10:50:51;;;;;;;6.13;5.40;;;;;;;30.99;37.42;65215.84;5046117;28;20200;-77
2022/07/30 10:53:38;;;;;;;5.70;5.30;;;;;;;31.33;38.62;65251.63;5046085;28;20229;-77
2022/07/30 10:56:17;;;;;;;6.30;5.80;;;;;;;31.52;38.22;65273.72;5046203;28;20185;-78
2022/07/30 10:59:06;;;;;;;6.40;4.95;;;;;;;31.63;38.17;65282.66;5046512;28;20212;-77
2022/07/30 11:02:07;;;;;;;5.00;4.78;;;;;;;31.76;37.45;65301.06;5045761;28;20192;-77
2022/07/30 11:04:34;;;;;;;5.35;5.05;;;;;;;31.67;36.98;65295.28;5044292;28;20232;-77
2022/07/30 11:07:31;;;;;;;5.40;5.10;;;;;;;31.73;38.43;65292.66;5045722;28;20231;-76
2022/07/30 11:10:00;;;;;;;4.85;4.55;;;;;;;31.67;39.30;65289.50;5046201;28;20216;-77
2022/07/30 11:12:53;;;;;;;6.05;5.65;;;;;;;31.54;39.19;65273.72;5046326;28;20223;-76
2022/07/30 11:15:22;;;;;;;5.53;5.03;;;;;;;31.39;38.52;65260.03;5045954;28;20228;-77
2022/07/30 11:18:00;;;;;;;5.38;5.03;;;;;;;31.34;38.79;65257.41;5046115;28;20312;-78
2022/07/30 11:20:28;;;;;;;5.78;5.22;;;;;;;31.21;39.53;65244.22;5045518;28;20197;-77
2022/07/30 11:23:09;;;;;;;6.55;4.95;;;;;;;31.30;40.10;65248.44;5046088;28;20217;-77
2022/07/30 11:25:41;;;;;;;6.57;6.07;;;;;;;31.27;40.20;65242.63;5045868;28;20502;-77
2022/07/30 11:28:28;;;;;;;6.10;5.55;;;;;;;31.48;39.21;65280.03;5046032;28;20246;-78
2022/07/30 11:30:57;;;;;;;5.95;5.57;;;;;;;31.58;38.00;65280.53;5045557;28;20197;-77
2022/07/30 11:33:24;;;;;;;6.05;5.55;;;;;;;31.65;37.29;65287.41;5045266;28;20213;-77
2022/07/30 11:36:12;;;;;;;5.57;5.28;;;;;;;31.72;38.42;65288.97;5044942;28;20197;-79
2022/07/30 11:39:00;;;;;;;6.20;5.70;;;;;;;31.70;40.03;65297.94;5045187;28;20316;-78
2022/07/30 11:41:27;;;;;;;6.38;5.97;;;;;;;31.87;39.97;65313.22;5045767;28;20186;-77
2022/07/30 11:44:26;;;;;;;6.47;5.97;;;;;;;31.43;37.82;65261.59;5045867;28;20209;-75
2022/07/30 11:46:55;;;;;;;8.57;6.03;;;;;;;31.66;39.29;65291.63;5045241;28;20526;-77
2022/07/30 11:49:22;;;;;;;6.88;6.38;;;;;;;31.76;40.03;65298.97;5044737;28;20324;-77